Terminal Aerodrome Forecast
Issued by NWS

Home | Current Version | Previous Version | Text Only | Print | Product List | Glossary On
Versions: 1 2 3 4 5 6 7 8 9 10 11 12 13 14 15 16 17
000
FTAK31 PAJN 311503 AAB
TAFAJN
TAF AMD
PAJN 311503Z 3115/0112 VRB03KT 6SM -SHRA FEW005 BKN015 OVC025
      TEMPO 3115/3118 2SM -SHRA BR SCT005 OVC015
     FM311800 12008KT P6SM -SHRA BKN035 OVC050
     FM312100 10012KT P6SM -SHRA SCT035 OVC050
     FM010000 08012KT P6SM VCSH SCT040 OVC060=

USA.gov is the U.S. government's official web portal to all federal, state and local government web resources and services.